sensor_id;sensor_type;location;lat;lon;timestamp;temperature;humidity
80238;DHT22;69544;42.138;24.742;2023-04-29T00:00:02;21.30;33.80
80238;DHT22;69544;42.138;24.742;2023-04-29T00:02:29;21.30;33.80
80238;DHT22;69544;42.138;24.742;2023-04-29T00:04:55;21.30;33.80
80238;DHT22;69544;42.138;24.742;2023-04-29T00:07:21;21.30;33.80
80238;DHT22;69544;42.138;24.742;2023-04-29T00:09:47;21.30;33.90
80238;DHT22;69544;42.138;24.742;2023-04-29T00:12:12;21.30;33.80
80238;DHT22;69544;42.138;24.742;2023-04-29T00:14:38;21.30;33.80
80238;DHT22;69544;42.138;24.742;2023-04-29T00:17:04;21.30;33.80
80238;DHT22;69544;42.138;24.742;2023-04-29T00:19:29;21.30;33.80
80238;DHT22;69544;42.138;24.742;2023-04-29T00:21:56;21.30;33.80
80238;DHT22;69544;42.138;24.742;2023-04-29T00:24:21;21.30;33.80
80238;DHT22;69544;42.138;24.742;2023-04-29T00:26:47;21.30;33.80
80238;DHT22;69544;42.138;24.742;2023-04-29T00:29:13;21.30;33.80
80238;DHT22;69544;42.138;24.742;2023-04-29T00:31:38;21.30;33.80
80238;DHT22;69544;42.138;24.742;2023-04-29T00:34:04;21.20;33.80
80238;DHT22;69544;42.138;24.742;2023-04-29T00:36:30;21.20;33.70
80238;DHT22;69544;42.138;24.742;2023-04-29T00:38:56;21.30;33.80
80238;DHT22;69544;42.138;24.742;2023-04-29T00:41:25;21.30;33.70
80238;DHT22;69544;42.138;24.742;2023-04-29T00:43:51;21.30;33.70
80238;DHT22;69544;42.138;24.742;2023-04-29T00:46:17;21.30;33.70
80238;DHT22;69544;42.138;24.742;2023-04-29T00:48:43;21.30;33.70
80238;DHT22;69544;42.138;24.742;2023-04-29T00:51:09;21.30;33.70
80238;DHT22;69544;42.138;24.742;2023-04-29T00:53:36;21.30;33.70
80238;DHT22;69544;42.138;24.742;2023-04-29T00:56:02;21.30;33.70
80238;DHT22;69544;42.138;24.742;2023-04-29T00:58:29;21.30;33.60
80238;DHT22;69544;42.138;24.742;2023-04-29T01:01:01;21.30;33.60
80238;DHT22;69544;42.138;24.742;2023-04-29T01:03:29;21.30;33.60
80238;DHT22;69544;42.138;24.742;2023-04-29T01:11:52;21.30;33.70
80238;DHT22;69544;42.138;24.742;2023-04-29T01:14:21;21.30;33.70
80238;DHT22;69544;42.138;24.742;2023-04-29T01:16:51;21.20;33.70
80238;DHT22;69544;42.138;24.742;2023-04-29T01:22:01;21.30;33.70
80238;DHT22;69544;42.138;24.742;2023-04-29T01:24:27;21.20;33.70
80238;DHT22;69544;42.138;24.742;2023-04-29T01:27:01;21.30;33.70
80238;DHT22;69544;42.138;24.742;2023-04-29T01:32:12;21.20;33.60
80238;DHT22;69544;42.138;24.742;2023-04-29T01:37:26;21.20;33.70
80238;DHT22;69544;42.138;24.742;2023-04-29T01:40:11;21.20;33.60
80238;DHT22;69544;42.138;24.742;2023-04-29T01:42:56;21.20;33.60
80238;DHT22;69544;42.138;24.742;2023-04-29T01:45:25;21.20;33.60
80238;DHT22;69544;42.138;24.742;2023-04-29T01:47:54;21.20;33.60
80238;DHT22;69544;42.138;24.742;2023-04-29T01:50:23;21.20;33.60
80238;DHT22;69544;42.138;24.742;2023-04-29T01:52:49;21.20;33.50
80238;DHT22;69544;42.138;24.742;2023-04-29T01:55:15;21.20;33.50
80238;DHT22;69544;42.138;24.742;2023-04-29T01:57:41;21.20;33.60
80238;DHT22;69544;42.138;24.742;2023-04-29T02:00:10;21.20;33.50
80238;DHT22;69544;42.138;24.742;2023-04-29T02:02:36;21.20;33.50
80238;DHT22;69544;42.138;24.742;2023-04-29T02:05:02;21.20;33.50
80238;DHT22;69544;42.138;24.742;2023-04-29T02:07:27;21.20;33.60
80238;DHT22;69544;42.138;24.742;2023-04-29T02:09:53;21.20;33.50
80238;DHT22;69544;42.138;24.742;2023-04-29T02:12:19;21.20;33.50
80238;DHT22;69544;42.138;24.742;2023-04-29T02:14:44;21.10;33.50
80238;DHT22;69544;42.138;24.742;2023-04-29T02:17:12;21.20;33.60
80238;DHT22;69544;42.138;24.742;2023-04-29T02:19:38;21.20;33.60
80238;DHT22;69544;42.138;24.742;2023-04-29T02:22:03;21.10;33.50
80238;DHT22;69544;42.138;24.742;2023-04-29T02:24:29;21.20;33.60
80238;DHT22;69544;42.138;24.742;2023-04-29T02:26:55;21.20;33.50
80238;DHT22;69544;42.138;24.742;2023-04-29T02:29:21;21.20;33.50
80238;DHT22;69544;42.138;24.742;2023-04-29T02:31:47;21.20;33.50
80238;DHT22;69544;42.138;24.742;2023-04-29T02:34:12;21.20;33.50
80238;DHT22;69544;42.138;24.742;2023-04-29T02:36:38;21.20;33.50
80238;DHT22;69544;42.138;24.742;2023-04-29T02:39:04;21.20;33.50
80238;DHT22;69544;42.138;24.742;2023-04-29T02:41:32;21.20;33.50
80238;DHT22;69544;42.138;24.742;2023-04-29T02:43:57;21.20;33.50
80238;DHT22;69544;42.138;24.742;2023-04-29T02:46:24;21.10;33.40
80238;DHT22;69544;42.138;24.742;2023-04-29T02:48:50;21.10;33.40
80238;DHT22;69544;42.138;24.742;2023-04-29T02:51:15;21.10;33.50
80238;DHT22;69544;42.138;24.742;2023-04-29T02:53:41;21.20;33.50
80238;DHT22;69544;42.138;24.742;2023-04-29T02:56:07;21.20;33.30
80238;DHT22;69544;42.138;24.742;2023-04-29T02:58:32;21.20;33.40
80238;DHT22;69544;42.138;24.742;2023-04-29T03:00:58;21.10;33.30
80238;DHT22;69544;42.138;24.742;2023-04-29T03:03:24;21.20;33.40
80238;DHT22;69544;42.138;24.742;2023-04-29T03:05:49;21.20;33.40
80238;DHT22;69544;42.138;24.742;2023-04-29T03:08:15;21.20;33.30
80238;DHT22;69544;42.138;24.742;2023-04-29T03:10:41;21.10;33.30
80238;DHT22;69544;42.138;24.742;2023-04-29T03:13:07;21.10;33.30
80238;DHT22;69544;42.138;24.742;2023-04-29T03:15:32;21.20;33.40
80238;DHT22;69544;42.138;24.742;2023-04-29T03:17:58;21.20;33.40
80238;DHT22;69544;42.138;24.742;2023-04-29T03:20:26;21.10;33.20
80238;DHT22;69544;42.138;24.742;2023-04-29T03:22:52;21.10;33.20
80238;DHT22;69544;42.138;24.742;2023-04-29T03:25:17;21.10;33.20
80238;DHT22;69544;42.138;24.742;2023-04-29T03:27:43;21.10;33.20
80238;DHT22;69544;42.138;24.742;2023-04-29T03:30:09;21.10;33.20
80238;DHT22;69544;42.138;24.742;2023-04-29T03:32:35;21.10;33.20
80238;DHT22;69544;42.138;24.742;2023-04-29T03:35:00;21.10;33.20
80238;DHT22;69544;42.138;24.742;2023-04-29T03:37:26;21.10;33.20
80238;DHT22;69544;42.138;24.742;2023-04-29T03:39:54;21.10;33.20
80238;DHT22;69544;42.138;24.742;2023-04-29T03:42:22;21.20;33.10
80238;DHT22;69544;42.138;24.742;2023-04-29T03:44:48;21.20;33.10
80238;DHT22;69544;42.138;24.742;2023-04-29T03:47:13;21.20;34.20
80238;DHT22;69544;42.138;24.742;2023-04-29T03:49:39;21.20;33.20
80238;DHT22;69544;42.138;24.742;2023-04-29T03:52:05;21.20;33.10
80238;DHT22;69544;42.138;24.742;2023-04-29T03:54:31;21.20;33.10
80238;DHT22;69544;42.138;24.742;2023-04-29T03:56:56;21.20;33.10
80238;DHT22;69544;42.138;24.742;2023-04-29T03:59:22;21.20;33.00
80238;DHT22;69544;42.138;24.742;2023-04-29T04:01:48;21.20;32.90
80238;DHT22;69544;42.138;24.742;2023-04-29T04:04:14;21.20;33.00
80238;DHT22;69544;42.138;24.742;2023-04-29T04:06:40;21.20;33.00
80238;DHT22;69544;42.138;24.742;2023-04-29T04:09:05;21.30;33.00
80238;DHT22;69544;42.138;24.742;2023-04-29T04:11:31;21.30;32.80
80238;DHT22;69544;42.138;24.742;2023-04-29T04:13:56;21.30;32.80
80238;DHT22;69544;42.138;24.742;2023-04-29T04:16:22;21.30;32.70
80238;DHT22;69544;42.138;24.742;2023-04-29T04:18:48;21.40;32.70
80238;DHT22;69544;42.138;24.742;2023-04-29T04:21:14;21.40;32.60
80238;DHT22;69544;42.138;24.742;2023-04-29T04:23:39;21.40;32.60
80238;DHT22;69544;42.138;24.742;2023-04-29T04:26:06;21.40;32.60
80238;DHT22;69544;42.138;24.742;2023-04-29T04:28:31;21.40;32.50
80238;DHT22;69544;42.138;24.742;2023-04-29T04:30:57;21.50;32.50
80238;DHT22;69544;42.138;24.742;2023-04-29T04:33:24;21.50;32.40
80238;DHT22;69544;42.138;24.742;2023-04-29T04:35:50;21.50;33.50
80238;DHT22;69544;42.138;24.742;2023-04-29T04:38:16;21.50;32.50
80238;DHT22;69544;42.138;24.742;2023-04-29T04:40:42;21.50;32.30
80238;DHT22;69544;42.138;24.742;2023-04-29T04:43:08;21.50;32.30
80238;DHT22;69544;42.138;24.742;2023-04-29T04:45:34;21.50;32.30
80238;DHT22;69544;42.138;24.742;2023-04-29T04:48:01;21.50;32.30
80238;DHT22;69544;42.138;24.742;2023-04-29T04:50:29;21.50;32.30
80238;DHT22;69544;42.138;24.742;2023-04-29T04:52:56;21.50;32.30
80238;DHT22;69544;42.138;24.742;2023-04-29T04:55:22;21.50;32.30
80238;DHT22;69544;42.138;24.742;2023-04-29T04:57:50;21.50;32.30
80238;DHT22;69544;42.138;24.742;2023-04-29T05:00:16;21.50;32.20
80238;DHT22;69544;42.138;24.742;2023-04-29T05:02:42;21.50;32.20
80238;DHT22;69544;42.138;24.742;2023-04-29T05:05:08;21.50;32.20
80238;DHT22;69544;42.138;24.742;2023-04-29T05:07:36;21.50;32.20
80238;DHT22;69544;42.138;24.742;2023-04-29T05:10:02;21.50;32.20
80238;DHT22;69544;42.138;24.742;2023-04-29T05:12:28;21.50;32.20
80238;DHT22;69544;42.138;24.742;2023-04-29T05:14:55;21.50;32.10
80238;DHT22;69544;42.138;24.742;2023-04-29T05:17:21;21.50;32.10
80238;DHT22;69544;42.138;24.742;2023-04-29T05:19:47;21.60;32.10
80238;DHT22;69544;42.138;24.742;2023-04-29T05:22:12;21.60;32.00
80238;DHT22;69544;42.138;24.742;2023-04-29T05:24:38;21.60;32.00
80238;DHT22;69544;42.138;24.742;2023-04-29T05:27:04;21.60;32.00
80238;DHT22;69544;42.138;24.742;2023-04-29T05:29:30;21.60;32.00
80238;DHT22;69544;42.138;24.742;2023-04-29T05:31:55;21.60;32.00
80238;DHT22;69544;42.138;24.742;2023-04-29T05:34:21;21.60;32.00
80238;DHT22;69544;42.138;24.742;2023-04-29T05:36:47;21.60;32.00
80238;DHT22;69544;42.138;24.742;2023-04-29T05:39:13;21.60;32.00
80238;DHT22;69544;42.138;24.742;2023-04-29T05:41:39;21.60;31.90
80238;DHT22;69544;42.138;24.742;2023-04-29T05:44:04;21.60;32.00
80238;DHT22;69544;42.138;24.742;2023-04-29T05:46:30;21.60;31.90
80238;DHT22;69544;42.138;24.742;2023-04-29T05:48:56;21.70;31.80
80238;DHT22;69544;42.138;24.742;2023-04-29T05:51:22;21.70;31.80
80238;DHT22;69544;42.138;24.742;2023-04-29T05:53:47;21.70;31.60
80238;DHT22;69544;42.138;24.742;2023-04-29T05:56:13;21.70;31.50
80238;DHT22;69544;42.138;24.742;2023-04-29T05:58:39;21.80;31.50
80238;DHT22;69544;42.138;24.742;2023-04-29T06:01:04;21.80;31.30
80238;DHT22;69544;42.138;24.742;2023-04-29T06:03:30;21.90;31.30
80238;DHT22;69544;42.138;24.742;2023-04-29T06:05:56;21.90;31.20
80238;DHT22;69544;42.138;24.742;2023-04-29T06:08:22;21.90;31.20
80238;DHT22;69544;42.138;24.742;2023-04-29T06:10:48;21.90;31.10
80238;DHT22;69544;42.138;24.742;2023-04-29T06:13:16;21.90;31.10
80238;DHT22;69544;42.138;24.742;2023-04-29T06:15:41;22.00;31.00
80238;DHT22;69544;42.138;24.742;2023-04-29T06:18:07;22.00;31.00
80238;DHT22;69544;42.138;24.742;2023-04-29T06:20:35;22.00;31.00
80238;DHT22;69544;42.138;24.742;2023-04-29T06:23:01;22.10;31.00
80238;DHT22;69544;42.138;24.742;2023-04-29T06:25:26;22.00;30.90
80238;DHT22;69544;42.138;24.742;2023-04-29T06:27:52;22.10;30.90
80238;DHT22;69544;42.138;24.742;2023-04-29T06:30:18;22.10;30.90
80238;DHT22;69544;42.138;24.742;2023-04-29T06:32:44;22.10;32.00
80238;DHT22;69544;42.138;24.742;2023-04-29T06:35:09;22.10;31.20
80238;DHT22;69544;42.138;24.742;2023-04-29T06:37:35;22.10;30.90
80238;DHT22;69544;42.138;24.742;2023-04-29T06:40:01;22.00;30.80
80238;DHT22;69544;42.138;24.742;2023-04-29T06:42:27;22.00;30.90
80238;DHT22;69544;42.138;24.742;2023-04-29T06:44:53;22.10;30.90
80238;DHT22;69544;42.138;24.742;2023-04-29T06:47:18;22.10;30.90
80238;DHT22;69544;42.138;24.742;2023-04-29T06:49:44;22.00;30.80
80238;DHT22;69544;42.138;24.742;2023-04-29T06:52:10;22.10;30.90
80238;DHT22;69544;42.138;24.742;2023-04-29T06:54:36;22.10;30.90
80238;DHT22;69544;42.138;24.742;2023-04-29T06:57:01;22.10;30.80
80238;DHT22;69544;42.138;24.742;2023-04-29T06:59:27;22.10;30.80
80238;DHT22;69544;42.138;24.742;2023-04-29T07:01:53;22.10;30.80
80238;DHT22;69544;42.138;24.742;2023-04-29T07:04:19;22.10;30.70
80238;DHT22;69544;42.138;24.742;2023-04-29T07:06:44;22.20;30.60
80238;DHT22;69544;42.138;24.742;2023-04-29T07:09:12;22.20;30.60
80238;DHT22;69544;42.138;24.742;2023-04-29T07:11:41;22.20;30.50
80238;DHT22;69544;42.138;24.742;2023-04-29T07:14:07;22.30;30.40
80238;DHT22;69544;42.138;24.742;2023-04-29T07:16:33;22.30;30.40
80238;DHT22;69544;42.138;24.742;2023-04-29T07:18:59;22.30;30.30
80238;DHT22;69544;42.138;24.742;2023-04-29T07:21:25;22.30;30.20
80238;DHT22;69544;42.138;24.742;2023-04-29T07:23:51;22.30;30.20
80238;DHT22;69544;42.138;24.742;2023-04-29T07:26:17;22.30;30.30
80238;DHT22;69544;42.138;24.742;2023-04-29T07:28:43;22.30;30.20
80238;DHT22;69544;42.138;24.742;2023-04-29T07:31:09;22.30;30.10
80238;DHT22;69544;42.138;24.742;2023-04-29T07:33:37;22.30;30.20
80238;DHT22;69544;42.138;24.742;2023-04-29T07:36:03;22.30;30.20
80238;DHT22;69544;42.138;24.742;2023-04-29T07:38:29;22.30;30.20
80238;DHT22;69544;42.138;24.742;2023-04-29T07:40:58;22.30;30.20
80238;DHT22;69544;42.138;24.742;2023-04-29T07:43:23;22.30;30.30
80238;DHT22;69544;42.138;24.742;2023-04-29T07:45:49;22.30;30.30
80238;DHT22;69544;42.138;24.742;2023-04-29T07:48:15;22.30;30.30
80238;DHT22;69544;42.138;24.742;2023-04-29T07:50:41;22.30;30.20
80238;DHT22;69544;42.138;24.742;2023-04-29T07:53:07;22.30;30.30
80238;DHT22;69544;42.138;24.742;2023-04-29T07:55:33;22.20;30.30
80238;DHT22;69544;42.138;24.742;2023-04-29T07:57:58;22.30;30.30
80238;DHT22;69544;42.138;24.742;2023-04-29T08:00:25;22.30;30.30
80238;DHT22;69544;42.138;24.742;2023-04-29T08:02:53;22.20;30.30
80238;DHT22;69544;42.138;24.742;2023-04-29T08:05:19;22.20;30.30
80238;DHT22;69544;42.138;24.742;2023-04-29T08:07:46;22.20;30.30
80238;DHT22;69544;42.138;24.742;2023-04-29T08:10:11;22.20;30.40
80238;DHT22;69544;42.138;24.742;2023-04-29T08:12:37;22.20;30.40
80238;DHT22;69544;42.138;24.742;2023-04-29T08:15:04;22.20;30.30
80238;DHT22;69544;42.138;24.742;2023-04-29T08:17:29;22.30;30.40
80238;DHT22;69544;42.138;24.742;2023-04-29T08:19:55;22.30;30.40
80238;DHT22;69544;42.138;24.742;2023-04-29T08:22:21;22.20;30.30
80238;DHT22;69544;42.138;24.742;2023-04-29T08:24:46;22.30;30.40
80238;DHT22;69544;42.138;24.742;2023-04-29T08:27:13;22.20;30.30
80238;DHT22;69544;42.138;24.742;2023-04-29T08:29:40;22.30;30.40
80238;DHT22;69544;42.138;24.742;2023-04-29T08:32:06;22.20;30.30
80238;DHT22;69544;42.138;24.742;2023-04-29T08:34:32;22.30;30.30
80238;DHT22;69544;42.138;24.742;2023-04-29T08:37:00;22.30;30.30
80238;DHT22;69544;42.138;24.742;2023-04-29T08:39:28;22.30;30.20
80238;DHT22;69544;42.138;24.742;2023-04-29T08:41:56;22.30;30.20
80238;DHT22;69544;42.138;24.742;2023-04-29T08:44:22;22.30;30.20
80238;DHT22;69544;42.138;24.742;2023-04-29T08:46:49;22.30;30.10
80238;DHT22;69544;42.138;24.742;2023-04-29T08:49:15;22.40;30.20
80238;DHT22;69544;42.138;24.742;2023-04-29T08:51:41;22.30;30.10
80238;DHT22;69544;42.138;24.742;2023-04-29T08:54:06;22.40;30.10
80238;DHT22;69544;42.138;24.742;2023-04-29T08:56:32;22.40;30.20
80238;DHT22;69544;42.138;24.742;2023-04-29T08:58:58;22.40;30.10
80238;DHT22;69544;42.138;24.742;2023-04-29T09:01:27;22.40;30.10
80238;DHT22;69544;42.138;24.742;2023-04-29T09:06:26;22.40;30.10
80238;DHT22;69544;42.138;24.742;2023-04-29T09:08:52;22.40;30.00
80238;DHT22;69544;42.138;24.742;2023-04-29T09:11:18;22.40;30.10
80238;DHT22;69544;42.138;24.742;2023-04-29T09:13:44;22.40;30.00
80238;DHT22;69544;42.138;24.742;2023-04-29T09:16:13;22.40;30.00
80238;DHT22;69544;42.138;24.742;2023-04-29T09:18:47;22.40;30.00
80238;DHT22;69544;42.138;24.742;2023-04-29T09:21:26;22.50;30.00
80238;DHT22;69544;42.138;24.742;2023-04-29T09:23:57;22.50;30.00
80238;DHT22;69544;42.138;24.742;2023-04-29T09:26:23;22.50;30.00
80238;DHT22;69544;42.138;24.742;2023-04-29T09:29:08;22.50;30.00
80238;DHT22;69544;42.138;24.742;2023-04-29T09:31:37;22.50;30.00
80238;DHT22;69544;42.138;24.742;2023-04-29T09:34:03;22.50;30.00
80238;DHT22;69544;42.138;24.742;2023-04-29T09:39:06;22.50;30.00
80238;DHT22;69544;42.138;24.742;2023-04-29T09:41:40;22.50;30.00
80238;DHT22;69544;42.138;24.742;2023-04-29T09:44:06;22.50;30.00
80238;DHT22;69544;42.138;24.742;2023-04-29T09:46:33;22.50;30.90
80238;DHT22;69544;42.138;24.742;2023-04-29T09:48:59;22.50;30.00
80238;DHT22;69544;42.138;24.742;2023-04-29T09:51:25;22.60;30.00
80238;DHT22;69544;42.138;24.742;2023-04-29T09:53:51;22.60;29.90
80238;DHT22;69544;42.138;24.742;2023-04-29T09:56:17;22.60;29.90
80238;DHT22;69544;42.138;24.742;2023-04-29T09:58:42;22.60;29.90
80238;DHT22;69544;42.138;24.742;2023-04-29T10:01:08;22.60;29.90
80238;DHT22;69544;42.138;24.742;2023-04-29T10:03:36;22.60;29.90
80238;DHT22;69544;42.138;24.742;2023-04-29T10:06:03;22.60;29.90
80238;DHT22;69544;42.138;24.742;2023-04-29T10:08:31;22.60;29.90
80238;DHT22;69544;42.138;24.742;2023-04-29T10:11:02;22.60;29.90
80238;DHT22;69544;42.138;24.742;2023-04-29T10:13:28;22.60;29.90
80238;DHT22;69544;42.138;24.742;2023-04-29T10:18:54;22.60;29.80
80238;DHT22;69544;42.138;24.742;2023-04-29T10:21:26;22.60;29.90
80238;DHT22;69544;42.138;24.742;2023-04-29T10:23:53;22.60;29.90
80238;DHT22;69544;42.138;24.742;2023-04-29T10:26:21;22.60;29.80
80238;DHT22;69544;42.138;24.742;2023-04-29T10:28:50;22.60;29.80
80238;DHT22;69544;42.138;24.742;2023-04-29T10:31:18;22.60;29.80
80238;DHT22;69544;42.138;24.742;2023-04-29T10:33:49;22.60;29.70
80238;DHT22;69544;42.138;24.742;2023-04-29T10:36:16;22.70;30.70
80238;DHT22;69544;42.138;24.742;2023-04-29T10:38:46;22.70;29.70
80238;DHT22;69544;42.138;24.742;2023-04-29T10:41:24;22.70;29.70
80238;DHT22;69544;42.138;24.742;2023-04-29T10:43:51;22.80;29.70
80238;DHT22;69544;42.138;24.742;2023-04-29T10:46:24;22.80;29.60
80238;DHT22;69544;42.138;24.742;2023-04-29T10:49:01;22.80;29.60
80238;DHT22;69544;42.138;24.742;2023-04-29T10:53:58;22.90;29.50
80238;DHT22;69544;42.138;24.742;2023-04-29T10:59:11;23.10;29.40
80238;DHT22;69544;42.138;24.742;2023-04-29T11:01:51;23.10;29.30
80238;DHT22;69544;42.138;24.742;2023-04-29T11:04:18;23.10;29.30
80238;DHT22;69544;42.138;24.742;2023-04-29T11:06:45;23.10;29.30
80238;DHT22;69544;42.138;24.742;2023-04-29T11:09:20;23.10;29.20
80238;DHT22;69544;42.138;24.742;2023-04-29T11:12:02;23.20;29.10
80238;DHT22;69544;42.138;24.742;2023-04-29T11:14:49;23.20;29.10
80238;DHT22;69544;42.138;24.742;2023-04-29T11:17:17;23.20;29.00
80238;DHT22;69544;42.138;24.742;2023-04-29T11:19:51;23.20;29.00
80238;DHT22;69544;42.138;24.742;2023-04-29T11:27:19;23.40;28.90
80238;DHT22;69544;42.138;24.742;2023-04-29T11:29:45;23.40;28.80
80238;DHT22;69544;42.138;24.742;2023-04-29T11:32:14;23.50;28.70
80238;DHT22;69544;42.138;24.742;2023-04-29T11:34:40;23.50;28.60
80238;DHT22;69544;42.138;24.742;2023-04-29T11:37:06;23.60;28.50
80238;DHT22;69544;42.138;24.742;2023-04-29T11:39:33;23.70;28.40
80238;DHT22;69544;42.138;24.742;2023-04-29T11:42:06;23.80;28.40
80238;DHT22;69544;42.138;24.742;2023-04-29T11:44:35;23.80;28.20
80238;DHT22;69544;42.138;24.742;2023-04-29T11:47:10;23.90;28.20
80238;DHT22;69544;42.138;24.742;2023-04-29T11:49:37;23.90;28.10
80238;DHT22;69544;42.138;24.742;2023-04-29T11:52:03;23.90;28.10
80238;DHT22;69544;42.138;24.742;2023-04-29T11:54:29;24.00;28.10
80238;DHT22;69544;42.138;24.742;2023-04-29T11:56:56;24.10;28.10
80238;DHT22;69544;42.138;24.742;2023-04-29T11:59:23;24.20;28.00
80238;DHT22;69544;42.138;24.742;2023-04-29T12:01:49;24.20;27.90
80238;DHT22;69544;42.138;24.742;2023-04-29T12:04:16;24.20;27.70
80238;DHT22;69544;42.138;24.742;2023-04-29T12:06:42;24.30;28.10
80238;DHT22;69544;42.138;24.742;2023-04-29T12:09:08;24.30;27.60
80238;DHT22;69544;42.138;24.742;2023-04-29T12:11:35;24.40;27.60
80238;DHT22;69544;42.138;24.742;2023-04-29T12:14:02;24.40;27.50
80238;DHT22;69544;42.138;24.742;2023-04-29T12:16:33;24.40;27.50
80238;DHT22;69544;42.138;24.742;2023-04-29T12:19:00;24.40;27.50
80238;DHT22;69544;42.138;24.742;2023-04-29T12:21:25;24.50;27.40
80238;DHT22;69544;42.138;24.742;2023-04-29T12:23:52;24.50;27.50
80238;DHT22;69544;42.138;24.742;2023-04-29T12:26:18;24.50;27.40
80238;DHT22;69544;42.138;24.742;2023-04-29T12:28:46;24.50;27.50
80238;DHT22;69544;42.138;24.742;2023-04-29T12:31:14;24.40;27.50
80238;DHT22;69544;42.138;24.742;2023-04-29T12:33:42;24.40;27.50
80238;DHT22;69544;42.138;24.742;2023-04-29T12:36:17;24.40;27.50
80238;DHT22;69544;42.138;24.742;2023-04-29T12:38:44;24.40;27.50
80238;DHT22;69544;42.138;24.742;2023-04-29T12:41:09;24.40;27.60
80238;DHT22;69544;42.138;24.742;2023-04-29T12:43:38;24.40;27.50
80238;DHT22;69544;42.138;24.742;2023-04-29T12:46:06;24.50;27.50
80238;DHT22;69544;42.138;24.742;2023-04-29T12:48:34;24.50;27.40
80238;DHT22;69544;42.138;24.742;2023-04-29T12:51:03;24.50;27.40
80238;DHT22;69544;42.138;24.742;2023-04-29T12:53:30;24.60;27.30
80238;DHT22;69544;42.138;24.742;2023-04-29T12:55:56;24.70;27.20
80238;DHT22;69544;42.138;24.742;2023-04-29T12:58:22;24.80;27.10
80238;DHT22;69544;42.138;24.742;2023-04-29T13:00:48;24.90;27.00
80238;DHT22;69544;42.138;24.742;2023-04-29T13:03:13;25.00;26.90
80238;DHT22;69544;42.138;24.742;2023-04-29T13:05:39;25.00;26.70
80238;DHT22;69544;42.138;24.742;2023-04-29T13:08:05;25.10;26.70
80238;DHT22;69544;42.138;24.742;2023-04-29T13:10:31;25.00;26.70
80238;DHT22;69544;42.138;24.742;2023-04-29T13:12:58;25.00;26.70
80238;DHT22;69544;42.138;24.742;2023-04-29T13:15:24;25.00;26.80
80238;DHT22;69544;42.138;24.742;2023-04-29T13:17:50;25.00;26.80
80238;DHT22;69544;42.138;24.742;2023-04-29T13:20:16;25.00;26.70
80238;DHT22;69544;42.138;24.742;2023-04-29T13:22:42;25.00;26.70
80238;DHT22;69544;42.138;24.742;2023-04-29T13:25:09;24.90;26.80
80238;DHT22;69544;42.138;24.742;2023-04-29T13:27:37;24.80;26.90
80238;DHT22;69544;42.138;24.742;2023-04-29T13:30:06;24.80;27.00
80238;DHT22;69544;42.138;24.742;2023-04-29T13:32:32;24.70;27.00
80238;DHT22;69544;42.138;24.742;2023-04-29T13:34:57;24.70;27.10
80238;DHT22;69544;42.138;24.742;2023-04-29T13:37:23;24.50;27.20
80238;DHT22;69544;42.138;24.742;2023-04-29T13:39:49;24.50;27.30
80238;DHT22;69544;42.138;24.742;2023-04-29T13:42:15;24.50;27.40
80238;DHT22;69544;42.138;24.742;2023-04-29T13:44:40;24.50;27.40
80238;DHT22;69544;42.138;24.742;2023-04-29T13:47:14;24.50;27.30
80238;DHT22;69544;42.138;24.742;2023-04-29T13:49:40;24.50;27.30
80238;DHT22;69544;42.138;24.742;2023-04-29T13:52:09;24.60;27.30
80238;DHT22;69544;42.138;24.742;2023-04-29T13:54:34;24.60;27.20
80238;DHT22;69544;42.138;24.742;2023-04-29T13:57:01;24.60;27.20
80238;DHT22;69544;42.138;24.742;2023-04-29T13:59:30;24.70;27.20
80238;DHT22;69544;42.138;24.742;2023-04-29T14:01:57;24.60;27.10
80238;DHT22;69544;42.138;24.742;2023-04-29T14:04:26;24.60;27.20
80238;DHT22;69544;42.138;24.742;2023-04-29T14:06:53;24.70;27.20
80238;DHT22;69544;42.138;24.742;2023-04-29T14:09:20;24.80;27.10
80238;DHT22;69544;42.138;24.742;2023-04-29T14:11:47;24.80;26.90
80238;DHT22;69544;42.138;24.742;2023-04-29T14:14:13;25.00;26.80
80238;DHT22;69544;42.138;24.742;2023-04-29T14:16:38;25.10;26.70
80238;DHT22;69544;42.138;24.742;2023-04-29T14:19:05;25.20;26.50
80238;DHT22;69544;42.138;24.742;2023-04-29T14:21:31;25.40;26.40
80238;DHT22;69544;42.138;24.742;2023-04-29T14:23:58;25.60;26.20
80238;DHT22;69544;42.138;24.742;2023-04-29T14:26:24;25.60;26.10
80238;DHT22;69544;42.138;24.742;2023-04-29T14:28:51;25.60;26.10
80238;DHT22;69544;42.138;24.742;2023-04-29T14:31:23;25.50;26.20
80238;DHT22;69544;42.138;24.742;2023-04-29T14:33:48;25.30;26.30
80238;DHT22;69544;42.138;24.742;2023-04-29T14:36:15;25.20;26.50
80238;DHT22;69544;42.138;24.742;2023-04-29T14:38:41;24.90;26.60
80238;DHT22;69544;42.138;24.742;2023-04-29T14:41:07;24.80;26.80
80238;DHT22;69544;42.138;24.742;2023-04-29T14:43:34;24.70;27.10
80238;DHT22;69544;42.138;24.742;2023-04-29T14:45:59;24.50;27.20
80238;DHT22;69544;42.138;24.742;2023-04-29T14:48:25;24.40;27.40
80238;DHT22;69544;42.138;24.742;2023-04-29T14:50:51;24.30;27.50
80238;DHT22;69544;42.138;24.742;2023-04-29T14:53:16;24.20;27.60
80238;DHT22;69544;42.138;24.742;2023-04-29T14:55:42;24.10;27.70
80238;DHT22;69544;42.138;24.742;2023-04-29T14:58:08;24.00;27.80
80238;DHT22;69544;42.138;24.742;2023-04-29T15:00:34;24.00;28.00
80238;DHT22;69544;42.138;24.742;2023-04-29T15:03:00;23.90;28.10
80238;DHT22;69544;42.138;24.742;2023-04-29T15:05:26;23.80;28.20
80238;DHT22;69544;42.138;24.742;2023-04-29T15:07:52;23.70;28.30
80238;DHT22;69544;42.138;24.742;2023-04-29T15:10:17;23.70;28.40
80238;DHT22;69544;42.138;24.742;2023-04-29T15:12:43;23.60;28.40
80238;DHT22;69544;42.138;24.742;2023-04-29T15:15:09;23.60;28.50
80238;DHT22;69544;42.138;24.742;2023-04-29T15:17:35;23.50;28.60
80238;DHT22;69544;42.138;24.742;2023-04-29T15:20:01;23.50;28.60
80238;DHT22;69544;42.138;24.742;2023-04-29T15:22:26;23.40;28.70
80238;DHT22;69544;42.138;24.742;2023-04-29T15:24:53;23.40;28.80
80238;DHT22;69544;42.138;24.742;2023-04-29T15:27:19;23.30;28.90
80238;DHT22;69544;42.138;24.742;2023-04-29T15:29:45;23.30;28.90
80238;DHT22;69544;42.138;24.742;2023-04-29T15:32:11;23.20;28.90
80238;DHT22;69544;42.138;24.742;2023-04-29T15:34:37;23.20;29.00
80238;DHT22;69544;42.138;24.742;2023-04-29T15:37:02;23.20;29.00
80238;DHT22;69544;42.138;24.742;2023-04-29T15:39:28;23.20;29.10
80238;DHT22;69544;42.138;24.742;2023-04-29T15:41:54;23.10;29.10
80238;DHT22;69544;42.138;24.742;2023-04-29T15:44:19;23.10;29.20